createdAt,value
2022-12-22T00:00:02.086Z,76.30
2022-12-22T00:02:48.678Z,78.85
2022-12-22T00:05:40.248Z,72.40
2022-12-22T00:08:28.508Z,74.65
2022-12-22T00:11:16.056Z,75.55
2022-12-22T00:14:05.112Z,70.43
2022-12-22T00:16:53.859Z,67.57
2022-12-22T00:19:41.194Z,76.25
2022-12-22T00:22:36.537Z,78.45
2022-12-22T00:25:26.357Z,78.45
2022-12-22T00:28:13.313Z,72.78
2022-12-22T00:31:00.815Z,72.78
2022-12-22T00:33:47.484Z,72.60
2022-12-22T00:36:34.473Z,70.15
2022-12-22T00:39:21.039Z,72.43
2022-12-22T00:42:09.942Z,80.28
2022-12-22T00:44:56.277Z,81.63
2022-12-22T00:47:45.798Z,76.35
2022-12-22T00:50:33.210Z,72.85
2022-12-22T00:53:20.971Z,73.82
2022-12-22T00:56:07.794Z,66.85
2022-12-22T00:58:58.237Z,77.93
2022-12-22T01:01:44.669Z,87.78
2022-12-22T01:04:31.133Z,68.85
2022-12-22T01:07:18.198Z,72.63
2022-12-22T01:10:09.480Z,77.65
2022-12-22T01:13:00.609Z,76.43
2022-12-22T01:15:48.452Z,86.60
2022-12-22T01:18:35.029Z,74.80
2022-12-22T01:21:22.924Z,76.47
2022-12-22T01:24:09.833Z,80.07
2022-12-22T01:26:56.074Z,82.07
2022-12-22T01:29:42.998Z,72.70
2022-12-22T01:32:33.906Z,82.93
2022-12-22T01:35:20.447Z,80.50
2022-12-22T01:38:06.698Z,80.60
2022-12-22T01:40:53.000Z,73.25
2022-12-22T01:43:44.097Z,81.63
2022-12-22T01:46:49.162Z,79.03
2022-12-22T01:52:30.970Z,86.05
2022-12-22T01:55:22.886Z,79.95
2022-12-22T01:58:09.734Z,74.88
2022-12-22T02:00:56.159Z,83.60
2022-12-22T02:03:43.031Z,62.60
2022-12-22T02:06:40.290Z,84.38
2022-12-22T02:10:01.434Z,82.05
2022-12-22T02:12:57.742Z,70.85
2022-12-22T02:15:49.694Z,79.68
2022-12-22T02:18:47.463Z,79.60
2022-12-22T02:21:39.691Z,86.82
2022-12-22T02:24:57.807Z,66.82
2022-12-22T02:27:47.065Z,69.68
2022-12-22T02:30:33.913Z,75.10
2022-12-22T02:33:20.811Z,69.10
2022-12-22T02:36:19.283Z,53.90
2022-12-22T02:39:15.131Z,54.33
2022-12-22T02:42:05.596Z,48.60
2022-12-22T02:45:06.616Z,42.13
2022-12-22T02:48:02.671Z,42.75
2022-12-22T02:50:54.362Z,48.20
2022-12-22T02:53:42.075Z,42.25
2022-12-22T02:56:31.798Z,40.58
2022-12-22T02:59:18.719Z,42.70
2022-12-22T03:02:05.722Z,40.85
2022-12-22T03:04:52.095Z,39.15
2022-12-22T03:07:38.397Z,42.05
2022-12-22T03:10:25.759Z,37.92
2022-12-22T03:13:13.043Z,39.50
2022-12-22T03:15:59.410Z,37.53
2022-12-22T03:18:46.042Z,35.90
2022-12-22T03:21:32.724Z,34.33
2022-12-22T03:24:18.799Z,34.50
2022-12-22T03:26:46.865Z,36.65
2022-12-22T03:29:14.851Z,33.33
2022-12-22T03:31:43.014Z,35.67
2022-12-22T03:34:11.073Z,37.92
2022-12-22T03:36:39.015Z,37.50
2022-12-22T03:39:07.720Z,40.53
2022-12-22T03:41:55.198Z,44.22
2022-12-22T03:44:41.324Z,41.20
2022-12-22T03:47:09.217Z,42.60
2022-12-22T03:49:37.129Z,40.53
2022-12-22T03:52:05.069Z,41.75
2022-12-22T03:54:32.970Z,38.63
2022-12-22T03:57:00.964Z,36.90
2022-12-22T03:59:28.918Z,40.03
2022-12-22T04:01:56.931Z,38.53
2022-12-22T04:04:26.665Z,39.47
2022-12-22T04:06:54.777Z,37.05
2022-12-22T04:09:25.071Z,31.85
2022-12-22T04:12:11.634Z,31.17
2022-12-22T04:14:39.609Z,34.92
2022-12-22T04:17:07.972Z,32.78
2022-12-22T04:19:36.053Z,35.08
2022-12-22T04:22:04.069Z,38.70
2022-12-22T04:24:31.944Z,40.70
2022-12-22T04:26:59.772Z,35.40
2022-12-22T04:29:27.760Z,36.50
2022-12-22T04:31:55.814Z,40.58
2022-12-22T04:34:24.161Z,36.85
2022-12-22T04:36:52.024Z,40.00
2022-12-22T04:39:20.564Z,30.67
2022-12-22T04:41:48.441Z,40.63
2022-12-22T04:44:19.127Z,39.80
2022-12-22T04:46:47.017Z,39.78
2022-12-22T04:49:14.844Z,40.40
2022-12-22T04:51:42.699Z,30.05
2022-12-22T04:54:14.164Z,40.75
2022-12-22T04:56:42.163Z,38.97
2022-12-22T04:59:12.998Z,34.28
2022-12-22T05:01:41.000Z,36.33
2022-12-22T05:04:09.054Z,39.97
2022-12-22T05:06:37.039Z,42.53
2022-12-22T05:09:05.083Z,39.08
2022-12-22T05:11:33.064Z,38.65
2022-12-22T05:14:06.858Z,39.25
2022-12-22T05:16:35.333Z,49.70
2022-12-22T05:19:03.388Z,38.20
2022-12-22T05:21:31.309Z,40.78
2022-12-22T05:24:00.046Z,39.60
2022-12-22T05:26:27.806Z,40.80
2022-12-22T05:28:56.698Z,41.83
2022-12-22T05:31:25.835Z,33.22
2022-12-22T05:33:53.738Z,31.65
2022-12-22T05:36:21.847Z,35.55
2022-12-22T05:38:49.689Z,29.95
2022-12-22T05:41:17.771Z,35.33
2022-12-22T05:43:45.805Z,38.15
2022-12-22T05:46:13.868Z,31.90
2022-12-22T05:48:41.884Z,34.33
2022-12-22T05:51:10.538Z,32.17
2022-12-22T05:53:41.788Z,40.30
2022-12-22T05:56:09.981Z,34.28
2022-12-22T05:58:39.606Z,41.10
2022-12-22T06:01:08.263Z,34.45
2022-12-22T06:03:36.522Z,45.55
2022-12-22T06:06:05.300Z,32.30
2022-12-22T06:08:33.305Z,30.88
2022-12-22T06:11:01.337Z,31.52
2022-12-22T06:13:29.227Z,35.70
2022-12-22T06:15:57.358Z,37.15
2022-12-22T06:18:25.258Z,26.40
2022-12-22T06:20:53.636Z,28.77
2022-12-22T06:23:22.653Z,31.27
2022-12-22T06:25:58.237Z,24.95
2022-12-22T06:28:26.633Z,26.17
2022-12-22T06:30:59.258Z,25.15
2022-12-22T06:33:27.179Z,22.50
2022-12-22T06:35:59.011Z,28.45
2022-12-22T06:38:28.762Z,20.58
2022-12-22T06:40:56.761Z,21.10
2022-12-22T06:43:25.577Z,21.27
2022-12-22T06:45:54.175Z,27.60
2022-12-22T06:48:22.362Z,19.65
2022-12-22T06:50:50.680Z,22.17
2022-12-22T06:53:18.609Z,20.92
2022-12-22T06:55:46.557Z,20.35
2022-12-22T06:58:14.561Z,22.95
2022-12-22T07:00:43.810Z,28.63
2022-12-22T07:03:11.925Z,27.15
2022-12-22T07:05:40.934Z,23.70
2022-12-22T07:08:09.519Z,25.95
2022-12-22T07:10:55.997Z,23.58
2022-12-22T07:13:28.696Z,22.02
2022-12-22T07:16:01.256Z,21.13
2022-12-22T07:18:32.667Z,27.92
2022-12-22T07:21:02.687Z,23.52
2022-12-22T07:23:30.890Z,30.17
2022-12-22T07:25:59.570Z,19.73
2022-12-22T07:28:27.645Z,21.65
2022-12-22T07:31:16.135Z,29.23
2022-12-22T07:34:02.405Z,22.48
2022-12-22T07:36:35.058Z,26.42
2022-12-22T07:39:03.062Z,29.92
2022-12-22T07:41:49.297Z,28.73
2022-12-22T07:44:36.428Z,32.17
2022-12-22T07:47:04.551Z,36.22
2022-12-22T07:49:51.402Z,31.70
2022-12-22T07:52:19.331Z,34.33
2022-12-22T07:55:05.823Z,35.85
2022-12-22T07:57:36.026Z,35.97
2022-12-22T08:00:04.342Z,39.47
2022-12-22T08:02:40.261Z,35.88
2022-12-22T08:05:09.225Z,33.33
2022-12-22T08:07:38.369Z,26.25
2022-12-22T08:10:06.903Z,27.92
2022-12-22T08:12:53.094Z,27.52
2022-12-22T08:15:21.156Z,26.40
2022-12-22T08:17:49.084Z,24.90
2022-12-22T08:20:17.005Z,25.33
2022-12-22T08:22:44.812Z,26.35
2022-12-22T08:25:12.686Z,28.23
2022-12-22T08:28:00.149Z,24.10
2022-12-22T08:30:31.016Z,25.58
2022-12-22T08:32:58.883Z,27.58
2022-12-22T08:35:45.526Z,25.48
2022-12-22T08:38:31.970Z,32.13
2022-12-22T08:41:41.737Z,26.75
2022-12-22T08:44:29.578Z,26.58
2022-12-22T08:46:59.395Z,28.15
2022-12-22T08:49:27.692Z,24.70
2022-12-22T08:51:55.507Z,27.73
2022-12-22T08:54:23.759Z,29.45
2022-12-22T08:56:51.732Z,30.20
2022-12-22T08:59:19.877Z,37.42
2022-12-22T09:01:51.318Z,30.42
2022-12-22T09:04:21.728Z,33.83
2022-12-22T09:06:52.660Z,34.20
2022-12-22T09:09:22.014Z,37.83
2022-12-22T09:11:50.263Z,34.85
2022-12-22T09:14:19.862Z,42.10
2022-12-22T09:16:47.945Z,34.45
2022-12-22T09:19:15.995Z,40.60
2022-12-22T09:21:45.191Z,42.47
2022-12-22T09:24:14.682Z,46.25
2022-12-22T09:26:43.214Z,38.00
2022-12-22T09:29:11.144Z,40.13
2022-12-22T09:31:41.807Z,44.60
2022-12-22T09:34:16.781Z,43.70
2022-12-22T09:36:46.503Z,36.67
2022-12-22T09:39:14.808Z,39.08
2022-12-22T09:41:47.712Z,38.85
2022-12-22T09:44:30.419Z,35.70
2022-12-22T09:47:01.954Z,41.03
2022-12-22T09:49:30.253Z,42.75
2022-12-22T09:52:01.368Z,54.47
2022-12-22T09:54:30.584Z,51.03
2022-12-22T09:56:58.598Z,60.90
2022-12-22T09:59:28.594Z,51.65
2022-12-22T10:02:21.020Z,56.60
2022-12-22T10:05:04.964Z,44.95
2022-12-22T10:07:42.798Z,47.70
2022-12-22T10:10:25.204Z,48.97
2022-12-22T10:12:59.231Z,46.80
2022-12-22T10:15:28.134Z,45.25
2022-12-22T10:18:11.248Z,39.03
2022-12-22T10:20:40.224Z,44.67
2022-12-22T10:23:17.415Z,42.63
2022-12-22T10:29:02.176Z,47.92
2022-12-22T10:31:32.422Z,51.45
2022-12-22T10:34:30.354Z,42.80
2022-12-22T10:37:01.810Z,45.83
2022-12-22T10:39:36.570Z,49.22
2022-12-22T10:42:13.810Z,48.58
2022-12-22T10:44:48.203Z,51.22
2022-12-22T10:47:24.478Z,49.78
2022-12-22T10:52:32.193Z,46.38
2022-12-22T10:55:39.243Z,45.13
2022-12-22T10:58:21.911Z,43.83
2022-12-22T11:01:04.382Z,43.05
2022-12-22T11:03:32.962Z,49.40
2022-12-22T11:06:01.321Z,44.13
2022-12-22T11:08:31.636Z,41.97
2022-12-22T11:11:10.278Z,42.65
2022-12-22T11:14:10.516Z,33.33
2022-12-22T11:16:43.581Z,46.58
2022-12-22T11:19:14.648Z,41.65
2022-12-22T11:22:01.324Z,43.20
2022-12-22T11:24:50.773Z,39.83
2022-12-22T11:28:06.600Z,44.88
2022-12-22T11:30:55.221Z,46.90
2022-12-22T11:33:58.408Z,40.30
2022-12-22T11:36:58.598Z,47.47
2022-12-22T11:40:15.835Z,48.08
2022-12-22T11:43:11.656Z,48.60
2022-12-22T11:45:51.498Z,47.20
2022-12-22T11:48:25.510Z,44.88
2022-12-22T11:51:13.162Z,45.30
2022-12-22T11:54:12.567Z,44.10
2022-12-22T11:56:45.281Z,44.90
2022-12-22T11:59:28.237Z,46.17
2022-12-22T12:02:16.033Z,46.70
2022-12-22T12:05:05.655Z,47.33
2022-12-22T12:07:57.201Z,45.30
2022-12-22T12:10:38.969Z,48.47
2022-12-22T12:13:38.670Z,43.88
2022-12-22T12:16:06.464Z,43.97
2022-12-22T12:19:26.290Z,42.88
2022-12-22T12:22:01.078Z,38.72
2022-12-22T12:24:54.230Z,38.22
2022-12-22T12:27:40.129Z,42.42
2022-12-22T12:30:37.498Z,33.95
2022-12-22T12:33:19.704Z,43.28
2022-12-22T12:35:58.556Z,37.30
2022-12-22T12:41:47.104Z,48.33
2022-12-22T12:44:18.089Z,44.88
2022-12-22T12:46:51.851Z,45.47
2022-12-22T12:49:34.662Z,49.67
2022-12-22T12:52:02.983Z,48.45
2022-12-22T12:54:30.800Z,46.00
2022-12-22T12:57:11.963Z,51.35
2022-12-22T12:59:39.791Z,47.78
2022-12-22T13:02:31.477Z,53.10
2022-12-22T13:05:11.640Z,55.15
2022-12-22T13:08:04.608Z,50.28
2022-12-22T13:10:57.044Z,49.55
2022-12-22T13:13:24.952Z,47.55
2022-12-22T13:16:07.804Z,43.28
2022-12-22T13:18:35.807Z,44.08
2022-12-22T13:24:29.626Z,42.70
2022-12-22T13:27:04.326Z,46.13
2022-12-22T13:29:43.481Z,38.53
2022-12-22T13:32:23.173Z,47.03
2022-12-22T13:35:34.735Z,44.00
2022-12-22T13:38:04.598Z,44.53
2022-12-22T13:40:44.220Z,42.60
2022-12-22T13:43:17.891Z,41.88
2022-12-22T13:45:49.236Z,49.00
2022-12-22T13:48:21.228Z,46.55
2022-12-22T13:50:51.275Z,52.30
2022-12-22T13:56:37.379Z,44.03
2022-12-22T13:59:14.415Z,45.67
2022-12-22T14:01:57.083Z,54.53
2022-12-22T14:04:26.093Z,51.15
2022-12-22T14:06:55.071Z,52.38
2022-12-22T14:09:28.645Z,54.25
2022-12-22T14:12:02.426Z,56.95
2022-12-22T14:14:37.502Z,47.63
2022-12-22T14:17:17.866Z,50.33
2022-12-22T14:19:50.511Z,57.22
2022-12-22T14:22:27.082Z,54.55
2022-12-22T14:25:03.434Z,52.20
2022-12-22T14:27:44.338Z,52.33
2022-12-22T14:30:21.210Z,58.88
2022-12-22T14:32:55.066Z,54.53
2022-12-22T14:35:23.828Z,49.50
2022-12-22T14:37:54.683Z,61.63
2022-12-22T14:40:33.501Z,53.85
2022-12-22T14:43:07.411Z,62.83
2022-12-22T14:45:35.272Z,62.65
2022-12-22T14:48:11.564Z,64.85
2022-12-22T14:50:51.906Z,60.10
2022-12-22T14:53:31.702Z,58.92
2022-12-22T14:55:59.743Z,62.75
2022-12-22T14:58:39.073Z,69.75
2022-12-22T15:01:14.721Z,56.03
2022-12-22T15:03:43.818Z,58.25
2022-12-22T15:06:34.508Z,71.93
2022-12-22T15:09:06.703Z,70.75
2022-12-22T15:11:37.882Z,69.53
2022-12-22T15:14:05.897Z,67.38
2022-12-22T15:16:33.799Z,57.30
2022-12-22T15:19:02.185Z,58.03
2022-12-22T15:21:30.850Z,59.70
2022-12-22T15:23:58.814Z,63.47
2022-12-22T15:26:26.826Z,61.10
2022-12-22T15:28:55.155Z,66.78
2022-12-22T15:31:23.180Z,66.90
2022-12-22T15:33:51.013Z,63.30
2022-12-22T15:36:18.976Z,59.25
2022-12-22T15:38:46.891Z,64.25
2022-12-22T15:41:14.762Z,59.60
2022-12-22T15:43:59.077Z,64.07
2022-12-22T15:46:30.756Z,65.40
2022-12-22T15:48:58.923Z,63.42
2022-12-22T15:51:30.875Z,65.93
2022-12-22T15:53:59.863Z,59.83
2022-12-22T15:56:32.428Z,61.65
2022-12-22T15:59:01.827Z,69.93
2022-12-22T16:01:29.757Z,63.53
2022-12-22T16:03:57.843Z,62.65
2022-12-22T16:06:25.766Z,64.10
2022-12-22T16:08:54.554Z,64.57
2022-12-22T16:11:22.436Z,64.35
2022-12-22T16:13:50.967Z,66.05
2022-12-22T16:16:19.036Z,62.22
2022-12-22T16:18:46.958Z,56.17
2022-12-22T16:21:21.398Z,56.80
2022-12-22T16:23:53.455Z,65.28
2022-12-22T16:26:22.269Z,62.75
2022-12-22T16:28:50.549Z,57.15
2022-12-22T16:31:22.201Z,54.50
2022-12-22T16:33:51.106Z,62.55
2022-12-22T16:36:19.589Z,54.13
2022-12-22T16:38:48.078Z,61.22
2022-12-22T16:41:20.292Z,55.55
2022-12-22T16:43:52.004Z,52.38
2022-12-22T16:50:53.477Z,48.78
2022-12-22T16:53:21.267Z,51.25
2022-12-22T16:55:49.101Z,52.55
2022-12-22T16:58:17.071Z,49.92
2022-12-22T17:00:45.700Z,65.25
2022-12-22T17:03:16.546Z,59.20
2022-12-22T17:06:05.321Z,66.40
2022-12-22T17:08:42.105Z,54.97
2022-12-22T17:11:17.094Z,59.45
2022-12-22T17:13:48.328Z,67.20
2022-12-22T17:16:23.610Z,64.30
2022-12-22T17:18:51.436Z,66.07
2022-12-22T17:21:20.623Z,60.72
2022-12-22T17:23:53.713Z,70.55
2022-12-22T17:26:27.334Z,63.03
2022-12-22T17:28:57.994Z,61.80
2022-12-22T17:31:26.945Z,74.90
2022-12-22T17:33:54.734Z,76.47
2022-12-22T17:36:37.585Z,69.70
2022-12-22T17:39:06.012Z,67.25
2022-12-22T17:41:33.796Z,66.97
2022-12-22T17:44:01.863Z,84.68
2022-12-22T17:46:29.730Z,89.05
2022-12-22T17:48:57.488Z,73.15
2022-12-22T17:51:28.686Z,71.47
2022-12-22T17:53:59.020Z,67.97
2022-12-22T17:56:29.430Z,73.38
2022-12-22T17:58:57.805Z,79.70
2022-12-22T18:01:30.094Z,62.45
2022-12-22T18:03:58.698Z,93.07
2022-12-22T18:06:34.692Z,69.53
2022-12-22T18:09:03.425Z,70.82
2022-12-22T18:11:31.370Z,72.03
2022-12-22T18:14:00.223Z,67.07
2022-12-22T18:16:28.574Z,66.60
2022-12-22T18:18:56.282Z,63.78
2022-12-22T18:21:25.492Z,59.95
2022-12-22T18:23:53.401Z,65.47
2022-12-22T18:26:29.875Z,66.47
2022-12-22T18:28:58.226Z,64.93
2022-12-22T18:31:26.196Z,59.28
2022-12-22T18:33:54.110Z,64.65
2022-12-22T18:36:29.856Z,61.95
2022-12-22T18:38:59.536Z,59.28
2022-12-22T18:41:29.519Z,54.30
2022-12-22T18:43:57.366Z,61.28
2022-12-22T18:46:25.497Z,64.65
2022-12-22T18:48:55.217Z,61.30
2022-12-22T18:51:26.029Z,60.03
2022-12-22T18:53:54.989Z,63.42
2022-12-22T18:56:23.071Z,64.13
2022-12-22T18:58:50.957Z,67.45
2022-12-22T19:01:26.926Z,58.05
2022-12-22T19:03:56.649Z,57.70
2022-12-22T19:06:24.699Z,55.95
2022-12-22T19:08:52.626Z,60.13
2022-12-22T19:11:27.105Z,54.25
2022-12-22T19:13:55.009Z,57.58
2022-12-22T19:16:28.093Z,62.55
2022-12-22T19:18:58.202Z,67.15
2022-12-22T19:21:26.525Z,53.75
2022-12-22T19:23:54.876Z,54.50
2022-12-22T19:26:26.335Z,67.30
2022-12-22T19:28:57.330Z,60.40
2022-12-22T19:31:28.511Z,69.35
2022-12-22T19:33:58.101Z,57.53
2022-12-22T19:36:28.272Z,57.70
2022-12-22T19:39:05.046Z,62.40
2022-12-22T19:41:55.042Z,65.10
2022-12-22T19:44:29.436Z,60.22
2022-12-22T19:47:01.613Z,55.42
2022-12-22T19:49:31.115Z,60.20
2022-12-22T19:51:59.791Z,62.15
2022-12-22T19:54:28.545Z,57.75
2022-12-22T19:56:57.930Z,57.30
2022-12-22T19:59:40.781Z,49.45
2022-12-22T20:02:32.385Z,53.83
2022-12-22T20:05:01.194Z,53.70
2022-12-22T20:07:34.013Z,59.28
2022-12-22T20:10:03.488Z,53.42
2022-12-22T20:12:38.028Z,57.45
2022-12-22T20:15:27.831Z,50.47
2022-12-22T20:17:57.285Z,46.78
2022-12-22T20:20:37.090Z,61.35
2022-12-22T20:23:12.492Z,56.78
2022-12-22T20:25:44.620Z,51.67
2022-12-22T20:28:28.833Z,50.38
2022-12-22T20:31:07.912Z,52.15
2022-12-22T20:33:36.117Z,52.50
2022-12-22T20:36:22.684Z,47.80
2022-12-22T20:38:54.849Z,52.83
2022-12-22T20:41:23.344Z,47.95
2022-12-22T20:43:52.060Z,47.65
2022-12-22T20:46:30.828Z,55.80
2022-12-22T20:49:03.649Z,44.42
2022-12-22T20:51:34.031Z,56.13
2022-12-22T20:54:02.364Z,47.95
2022-12-22T20:56:37.024Z,51.58
2022-12-22T20:59:17.400Z,62.72
2022-12-22T21:01:46.638Z,49.13
2022-12-22T21:04:16.142Z,50.45
2022-12-22T21:06:48.836Z,52.13
2022-12-22T21:09:20.565Z,61.42
2022-12-22T21:11:48.540Z,51.13
2022-12-22T21:14:17.261Z,50.00
2022-12-22T21:16:45.406Z,51.80
2022-12-22T21:19:18.435Z,53.55
2022-12-22T21:21:47.025Z,49.40
2022-12-22T21:24:23.003Z,60.90
2022-12-22T21:26:55.665Z,48.83
2022-12-22T21:29:26.972Z,45.60
2022-12-22T21:31:55.173Z,49.10
2022-12-22T21:34:23.111Z,55.22
2022-12-22T21:37:00.109Z,54.38
2022-12-22T21:39:37.804Z,50.67
2022-12-22T21:42:06.682Z,46.83
2022-12-22T21:44:35.990Z,48.83
2022-12-22T21:47:03.817Z,40.17
2022-12-22T21:49:33.415Z,43.63
2022-12-22T21:52:01.279Z,43.13
2022-12-22T21:54:29.187Z,48.72
2022-12-22T21:56:57.495Z,49.13
2022-12-22T21:59:25.398Z,47.78
2022-12-22T22:01:54.201Z,47.22
2022-12-22T22:04:23.109Z,45.75
2022-12-22T22:06:50.941Z,42.17
2022-12-22T22:09:18.778Z,40.53
2022-12-22T22:12:05.288Z,40.95
2022-12-22T22:14:33.005Z,40.95
2022-12-22T22:17:01.058Z,43.97
2022-12-22T22:19:28.953Z,42.60
2022-12-22T22:21:56.756Z,43.80
2022-12-22T22:24:25.229Z,41.67
2022-12-22T22:26:53.077Z,42.05
2022-12-22T22:29:20.942Z,47.20
2022-12-22T22:31:48.719Z,38.78
2022-12-22T22:34:16.591Z,42.13
2022-12-22T22:36:44.421Z,43.30
2022-12-22T22:39:12.301Z,45.38
2022-12-22T22:41:43.506Z,43.05
2022-12-22T22:44:12.073Z,37.92
2022-12-22T22:46:40.790Z,42.72
2022-12-22T22:49:08.961Z,42.92
2022-12-22T22:51:36.815Z,51.35
2022-12-22T22:54:04.615Z,41.22
2022-12-22T22:56:32.531Z,36.60
2022-12-22T22:59:00.467Z,41.10
2022-12-22T23:01:29.207Z,45.38
2022-12-22T23:03:57.366Z,41.85
2022-12-22T23:06:25.375Z,44.83
2022-12-22T23:08:54.577Z,43.00
2022-12-22T23:11:22.426Z,38.15
2022-12-22T23:13:50.285Z,37.42
2022-12-22T23:16:21.498Z,44.17
2022-12-22T23:18:53.266Z,34.30
2022-12-22T23:21:23.547Z,38.55
2022-12-22T23:23:56.398Z,39.85
2022-12-22T23:26:25.511Z,36.15
2022-12-22T23:28:57.708Z,46.63
2022-12-22T23:31:29.130Z,44.35
2022-12-22T23:33:57.470Z,42.50
2022-12-22T23:36:25.414Z,50.33
2022-12-22T23:38:53.478Z,48.60
2022-12-22T23:41:21.308Z,44.17
2022-12-22T23:43:51.557Z,46.80
2022-12-22T23:46:19.420Z,46.95
2022-12-22T23:48:53.200Z,50.92
2022-12-22T23:51:22.380Z,47.50
2022-12-22T23:53:50.431Z,54.42
2022-12-22T23:56:18.305Z,54.17
2022-12-22T23:58:49.593Z,44.80
